sensor_id;sensor_type;location;lat;lon;timestamp;temperature;humidity
22416;DHT22;12204;50.600;4.608;2022-09-27T00:04:49;23.00;77.70
22416;DHT22;12204;50.600;4.608;2022-09-27T00:09:53;23.00;77.70
22416;DHT22;12204;50.600;4.608;2022-09-27T00:14:57;23.00;77.50
22416;DHT22;12204;50.600;4.608;2022-09-27T00:20:04;23.00;77.60
22416;DHT22;12204;50.600;4.608;2022-09-27T00:25:10;23.00;77.70
22416;DHT22;12204;50.600;4.608;2022-09-27T00:30:14;22.90;77.60
22416;DHT22;12204;50.600;4.608;2022-09-27T00:35:19;22.90;77.80
22416;DHT22;12204;50.600;4.608;2022-09-27T00:40:22;22.90;78.00
22416;DHT22;12204;50.600;4.608;2022-09-27T00:45:26;22.90;78.00
22416;DHT22;12204;50.600;4.608;2022-09-27T00:50:35;22.90;78.10
22416;DHT22;12204;50.600;4.608;2022-09-27T00:55:43;22.90;78.20
22416;DHT22;12204;50.600;4.608;2022-09-27T01:00:52;22.80;78.20
22416;DHT22;12204;50.600;4.608;2022-09-27T01:06:01;22.80;78.10
22416;DHT22;12204;50.600;4.608;2022-09-27T01:11:17;22.80;78.10
22416;DHT22;12204;50.600;4.608;2022-09-27T01:16:57;22.80;78.10
22416;DHT22;12204;50.600;4.608;2022-09-27T01:22:09;22.80;77.70
22416;DHT22;12204;50.600;4.608;2022-09-27T01:33:44;22.80;77.80
22416;DHT22;12204;50.600;4.608;2022-09-27T01:39:16;22.80;77.70
22416;DHT22;12204;50.600;4.608;2022-09-27T01:45:06;22.80;77.60
22416;DHT22;12204;50.600;4.608;2022-09-27T01:50:45;22.70;77.60
22416;DHT22;12204;50.600;4.608;2022-09-27T01:55:54;22.70;77.60
22416;DHT22;12204;50.600;4.608;2022-09-27T02:01:29;22.70;77.60
22416;DHT22;12204;50.600;4.608;2022-09-27T02:06:40;22.70;77.60
22416;DHT22;12204;50.600;4.608;2022-09-27T02:11:58;22.70;77.50
22416;DHT22;12204;50.600;4.608;2022-09-27T02:17:14;22.70;77.70
22416;DHT22;12204;50.600;4.608;2022-09-27T02:22:31;22.70;77.70
22416;DHT22;12204;50.600;4.608;2022-09-27T02:27:41;22.70;77.60
22416;DHT22;12204;50.600;4.608;2022-09-27T02:33:02;22.70;77.40
22416;DHT22;12204;50.600;4.608;2022-09-27T02:38:07;22.60;77.30
22416;DHT22;12204;50.600;4.608;2022-09-27T02:43:12;22.60;77.50
22416;DHT22;12204;50.600;4.608;2022-09-27T02:48:23;22.60;77.50
22416;DHT22;12204;50.600;4.608;2022-09-27T02:53:52;22.60;77.50
22416;DHT22;12204;50.600;4.608;2022-09-27T02:59:37;22.60;77.60
22416;DHT22;12204;50.600;4.608;2022-09-27T03:05:02;22.60;77.80
22416;DHT22;12204;50.600;4.608;2022-09-27T03:10:17;22.60;77.90
22416;DHT22;12204;50.600;4.608;2022-09-27T03:15:22;22.60;78.10
22416;DHT22;12204;50.600;4.608;2022-09-27T03:20:35;22.60;78.10
22416;DHT22;12204;50.600;4.608;2022-09-27T03:25:44;22.50;78.10
22416;DHT22;12204;50.600;4.608;2022-09-27T03:30:48;22.50;78.10
22416;DHT22;12204;50.600;4.608;2022-09-27T03:36:21;22.50;78.10
22416;DHT22;12204;50.600;4.608;2022-09-27T03:41:26;22.50;77.90
22416;DHT22;12204;50.600;4.608;2022-09-27T03:46:30;22.50;78.00
22416;DHT22;12204;50.600;4.608;2022-09-27T03:51:34;22.50;77.80
22416;DHT22;12204;50.600;4.608;2022-09-27T03:56:39;22.50;77.80
22416;DHT22;12204;50.600;4.608;2022-09-27T04:01:43;22.50;77.80
22416;DHT22;12204;50.600;4.608;2022-09-27T04:07:06;22.50;77.70
22416;DHT22;12204;50.600;4.608;2022-09-27T04:12:12;22.50;77.60
22416;DHT22;12204;50.600;4.608;2022-09-27T04:17:16;22.50;77.60
22416;DHT22;12204;50.600;4.608;2022-09-27T04:22:39;22.50;77.50
22416;DHT22;12204;50.600;4.608;2022-09-27T04:27:47;22.50;77.60
22416;DHT22;12204;50.600;4.608;2022-09-27T04:32:57;22.50;77.50
22416;DHT22;12204;50.600;4.608;2022-09-27T04:38:20;22.40;77.60
22416;DHT22;12204;50.600;4.608;2022-09-27T04:43:27;22.40;78.20
22416;DHT22;12204;50.600;4.608;2022-09-27T04:48:30;22.40;77.30
22416;DHT22;12204;50.600;4.608;2022-09-27T04:53:34;22.50;77.40
22416;DHT22;12204;50.600;4.608;2022-09-27T04:58:40;22.50;77.60
22416;DHT22;12204;50.600;4.608;2022-09-27T05:03:44;22.50;77.40
22416;DHT22;12204;50.600;4.608;2022-09-27T05:08:49;22.40;77.40
22416;DHT22;12204;50.600;4.608;2022-09-27T05:13:54;22.40;77.30
22416;DHT22;12204;50.600;4.608;2022-09-27T05:19:05;22.40;77.30
22416;DHT22;12204;50.600;4.608;2022-09-27T05:24:31;22.40;77.30
22416;DHT22;12204;50.600;4.608;2022-09-27T05:29:38;22.40;77.20
22416;DHT22;12204;50.600;4.608;2022-09-27T05:34:47;22.40;77.40
22416;DHT22;12204;50.600;4.608;2022-09-27T05:39:54;22.40;77.40
22416;DHT22;12204;50.600;4.608;2022-09-27T05:44:59;22.40;77.30
22416;DHT22;12204;50.600;4.608;2022-09-27T05:50:08;22.40;77.30
22416;DHT22;12204;50.600;4.608;2022-09-27T05:55:12;22.40;77.30
22416;DHT22;12204;50.600;4.608;2022-09-27T06:00:17;22.30;77.20
22416;DHT22;12204;50.600;4.608;2022-09-27T06:05:25;22.30;77.10
22416;DHT22;12204;50.600;4.608;2022-09-27T06:10:33;22.40;77.20
22416;DHT22;12204;50.600;4.608;2022-09-27T06:15:42;22.40;77.30
22416;DHT22;12204;50.600;4.608;2022-09-27T06:20:48;22.30;77.40
22416;DHT22;12204;50.600;4.608;2022-09-27T06:25:52;22.30;77.40
22416;DHT22;12204;50.600;4.608;2022-09-27T06:31:07;22.30;77.80
22416;DHT22;12204;50.600;4.608;2022-09-27T06:36:20;22.30;77.40
22416;DHT22;12204;50.600;4.608;2022-09-27T06:41:25;22.30;77.40
22416;DHT22;12204;50.600;4.608;2022-09-27T06:46:41;22.30;77.30
22416;DHT22;12204;50.600;4.608;2022-09-27T06:51:45;22.30;77.40
22416;DHT22;12204;50.600;4.608;2022-09-27T06:56:48;22.30;77.20
22416;DHT22;12204;50.600;4.608;2022-09-27T07:01:53;22.30;77.20
22416;DHT22;12204;50.600;4.608;2022-09-27T07:07:29;22.30;77.20
22416;DHT22;12204;50.600;4.608;2022-09-27T07:12:34;22.30;77.20
22416;DHT22;12204;50.600;4.608;2022-09-27T07:17:40;22.30;77.20
22416;DHT22;12204;50.600;4.608;2022-09-27T07:22:44;22.30;77.20
22416;DHT22;12204;50.600;4.608;2022-09-27T07:27:48;22.30;77.20
22416;DHT22;12204;50.600;4.608;2022-09-27T07:32:57;22.30;77.10
22416;DHT22;12204;50.600;4.608;2022-09-27T07:38:01;22.30;75.80
22416;DHT22;12204;50.600;4.608;2022-09-27T07:43:06;22.10;73.70
22416;DHT22;12204;50.600;4.608;2022-09-27T07:48:13;22.00;72.10
22416;DHT22;12204;50.600;4.608;2022-09-27T07:53:33;21.90;70.70
22416;DHT22;12204;50.600;4.608;2022-09-27T07:58:55;21.80;69.80
22416;DHT22;12204;50.600;4.608;2022-09-27T08:04:00;21.70;69.00
22416;DHT22;12204;50.600;4.608;2022-09-27T08:09:05;21.70;68.70
22416;DHT22;12204;50.600;4.608;2022-09-27T08:14:12;21.70;68.80
22416;DHT22;12204;50.600;4.608;2022-09-27T08:19:21;21.70;67.80
22416;DHT22;12204;50.600;4.608;2022-09-27T08:24:45;21.60;67.90
22416;DHT22;12204;50.600;4.608;2022-09-27T08:30:10;21.60;67.30
22416;DHT22;12204;50.600;4.608;2022-09-27T08:35:16;21.50;67.10
22416;DHT22;12204;50.600;4.608;2022-09-27T08:40:22;21.50;66.80
22416;DHT22;12204;50.600;4.608;2022-09-27T08:45:31;21.50;67.70
22416;DHT22;12204;50.600;4.608;2022-09-27T08:50:43;21.50;67.90
22416;DHT22;12204;50.600;4.608;2022-09-27T08:55:50;21.50;68.40
22416;DHT22;12204;50.600;4.608;2022-09-27T09:01:00;21.60;69.00
22416;DHT22;12204;50.600;4.608;2022-09-27T09:06:16;21.60;69.30
22416;DHT22;12204;50.600;4.608;2022-09-27T09:11:30;21.60;69.70
22416;DHT22;12204;50.600;4.608;2022-09-27T09:17:11;21.60;70.20
22416;DHT22;12204;50.600;4.608;2022-09-27T09:22:59;21.60;70.60
22416;DHT22;12204;50.600;4.608;2022-09-27T09:28:44;21.60;70.80
22416;DHT22;12204;50.600;4.608;2022-09-27T09:34:06;21.60;71.10
22416;DHT22;12204;50.600;4.608;2022-09-27T09:39:22;21.60;71.30
22416;DHT22;12204;50.600;4.608;2022-09-27T09:44:31;21.60;71.50
22416;DHT22;12204;50.600;4.608;2022-09-27T09:49:46;21.60;71.70
22416;DHT22;12204;50.600;4.608;2022-09-27T09:55:01;21.60;71.80
22416;DHT22;12204;50.600;4.608;2022-09-27T10:00:13;21.60;72.00
22416;DHT22;12204;50.600;4.608;2022-09-27T10:05:25;21.60;72.20
22416;DHT22;12204;50.600;4.608;2022-09-27T10:10:39;21.60;72.40
22416;DHT22;12204;50.600;4.608;2022-09-27T10:16:19;21.60;72.50
22416;DHT22;12204;50.600;4.608;2022-09-27T10:21:26;21.60;72.60
22416;DHT22;12204;50.600;4.608;2022-09-27T10:26:35;21.60;72.60
22416;DHT22;12204;50.600;4.608;2022-09-27T10:31:43;21.60;72.70
22416;DHT22;12204;50.600;4.608;2022-09-27T10:37:10;21.60;72.70
22416;DHT22;12204;50.600;4.608;2022-09-27T10:42:34;21.60;72.80
22416;DHT22;12204;50.600;4.608;2022-09-27T10:47:42;21.60;72.90
22416;DHT22;12204;50.600;4.608;2022-09-27T10:53:03;21.60;73.10
22416;DHT22;12204;50.600;4.608;2022-09-27T10:58:16;21.60;72.90
22416;DHT22;12204;50.600;4.608;2022-09-27T11:03:23;21.60;72.80
22416;DHT22;12204;50.600;4.608;2022-09-27T11:08:32;21.60;72.70
22416;DHT22;12204;50.600;4.608;2022-09-27T11:14:04;21.50;72.40
22416;DHT22;12204;50.600;4.608;2022-09-27T11:19:28;21.50;72.30
22416;DHT22;12204;50.600;4.608;2022-09-27T11:24:58;21.60;72.90
22416;DHT22;12204;50.600;4.608;2022-09-27T11:30:20;21.50;72.40
22416;DHT22;12204;50.600;4.608;2022-09-27T11:35:51;21.50;72.00
22416;DHT22;12204;50.600;4.608;2022-09-27T11:41:13;21.50;72.00
22416;DHT22;12204;50.600;4.608;2022-09-27T11:46:34;21.50;72.00
22416;DHT22;12204;50.600;4.608;2022-09-27T11:52:21;21.50;72.00
22416;DHT22;12204;50.600;4.608;2022-09-27T11:57:38;21.50;71.90
22416;DHT22;12204;50.600;4.608;2022-09-27T12:03:06;21.50;71.90
22416;DHT22;12204;50.600;4.608;2022-09-27T12:08:52;21.50;71.80
22416;DHT22;12204;50.600;4.608;2022-09-27T12:14:08;21.50;71.80
22416;DHT22;12204;50.600;4.608;2022-09-27T12:19:24;21.50;71.90
22416;DHT22;12204;50.600;4.608;2022-09-27T12:24:40;21.50;71.90
22416;DHT22;12204;50.600;4.608;2022-09-27T12:30:04;21.50;71.70
22416;DHT22;12204;50.600;4.608;2022-09-27T12:35:17;21.50;71.40
22416;DHT22;12204;50.600;4.608;2022-09-27T12:40:25;21.50;71.40
22416;DHT22;12204;50.600;4.608;2022-09-27T12:45:41;21.50;72.00
22416;DHT22;12204;50.600;4.608;2022-09-27T12:50:59;21.50;72.40
22416;DHT22;12204;50.600;4.608;2022-09-27T12:56:28;21.50;72.90
22416;DHT22;12204;50.600;4.608;2022-09-27T13:02:06;21.50;72.90
22416;DHT22;12204;50.600;4.608;2022-09-27T13:08:08;21.50;73.00
22416;DHT22;12204;50.600;4.608;2022-09-27T13:13:28;21.50;72.70
22416;DHT22;12204;50.600;4.608;2022-09-27T13:18:53;21.50;72.60
22416;DHT22;12204;50.600;4.608;2022-09-27T13:24:39;21.50;72.70
22416;DHT22;12204;50.600;4.608;2022-09-27T13:36:06;21.50;72.60
22416;DHT22;12204;50.600;4.608;2022-09-27T13:41:31;21.40;72.60
22416;DHT22;12204;50.600;4.608;2022-09-27T13:46:48;21.50;72.60
22416;DHT22;12204;50.600;4.608;2022-09-27T13:52:00;21.50;72.60
22416;DHT22;12204;50.600;4.608;2022-09-27T13:57:44;21.40;72.50
22416;DHT22;12204;50.600;4.608;2022-09-27T14:03:01;21.50;72.60
22416;DHT22;12204;50.600;4.608;2022-09-27T14:08:19;21.50;72.70
22416;DHT22;12204;50.600;4.608;2022-09-27T14:13:30;21.50;72.90
22416;DHT22;12204;50.600;4.608;2022-09-27T14:18:42;21.50;72.60
22416;DHT22;12204;50.600;4.608;2022-09-27T14:24:19;21.50;71.30
22416;DHT22;12204;50.600;4.608;2022-09-27T14:29:40;21.50;70.80
22416;DHT22;12204;50.600;4.608;2022-09-27T14:35:06;21.50;71.00
22416;DHT22;12204;50.600;4.608;2022-09-27T14:40:37;21.60;71.70
22416;DHT22;12204;50.600;4.608;2022-09-27T14:45:46;21.60;71.20
22416;DHT22;12204;50.600;4.608;2022-09-27T14:50:53;21.60;71.10
22416;DHT22;12204;50.600;4.608;2022-09-27T14:56:08;21.60;71.20
22416;DHT22;12204;50.600;4.608;2022-09-27T15:01:17;21.70;71.20
22416;DHT22;12204;50.600;4.608;2022-09-27T15:06:22;21.60;71.00
22416;DHT22;12204;50.600;4.608;2022-09-27T15:11:26;21.60;69.60
22416;DHT22;12204;50.600;4.608;2022-09-27T15:16:35;21.60;69.00
22416;DHT22;12204;50.600;4.608;2022-09-27T15:21:39;21.50;67.90
22416;DHT22;12204;50.600;4.608;2022-09-27T15:26:44;21.40;67.30
22416;DHT22;12204;50.600;4.608;2022-09-27T15:31:59;21.50;70.90
22416;DHT22;12204;50.600;4.608;2022-09-27T15:37:06;21.50;71.00
22416;DHT22;12204;50.600;4.608;2022-09-27T15:42:14;21.50;69.60
22416;DHT22;12204;50.600;4.608;2022-09-27T15:47:46;21.50;68.60
22416;DHT22;12204;50.600;4.608;2022-09-27T15:52:52;21.40;68.40
22416;DHT22;12204;50.600;4.608;2022-09-27T15:57:59;21.50;69.20
22416;DHT22;12204;50.600;4.608;2022-09-27T16:03:08;21.50;69.90
22416;DHT22;12204;50.600;4.608;2022-09-27T16:08:12;21.50;70.20
22416;DHT22;12204;50.600;4.608;2022-09-27T16:13:16;21.50;70.40
22416;DHT22;12204;50.600;4.608;2022-09-27T16:18:23;21.50;70.50
22416;DHT22;12204;50.600;4.608;2022-09-27T16:23:31;21.60;70.60
22416;DHT22;12204;50.600;4.608;2022-09-27T16:28:35;21.60;73.50
22416;DHT22;12204;50.600;4.608;2022-09-27T16:33:40;21.60;73.50
22416;DHT22;12204;50.600;4.608;2022-09-27T16:38:46;21.60;74.00
22416;DHT22;12204;50.600;4.608;2022-09-27T16:43:51;21.60;73.80
22416;DHT22;12204;50.600;4.608;2022-09-27T16:48:56;21.60;73.90
22416;DHT22;12204;50.600;4.608;2022-09-27T16:54:00;21.60;72.40
22416;DHT22;12204;50.600;4.608;2022-09-27T16:59:04;21.60;72.30
22416;DHT22;12204;50.600;4.608;2022-09-27T17:04:09;21.60;72.50
22416;DHT22;12204;50.600;4.608;2022-09-27T17:09:15;21.60;72.70
22416;DHT22;12204;50.600;4.608;2022-09-27T17:14:19;21.60;72.70
22416;DHT22;12204;50.600;4.608;2022-09-27T17:19:24;21.50;72.70
22416;DHT22;12204;50.600;4.608;2022-09-27T17:24:29;21.50;72.70
22416;DHT22;12204;50.600;4.608;2022-09-27T17:29:32;21.50;73.00
22416;DHT22;12204;50.600;4.608;2022-09-27T17:34:37;21.50;72.90
22416;DHT22;12204;50.600;4.608;2022-09-27T17:39:44;21.50;72.60
22416;DHT22;12204;50.600;4.608;2022-09-27T17:44:48;21.50;72.70
22416;DHT22;12204;50.600;4.608;2022-09-27T17:49:53;21.50;72.60
22416;DHT22;12204;50.600;4.608;2022-09-27T17:55:14;21.50;72.60
22416;DHT22;12204;50.600;4.608;2022-09-27T18:00:19;21.50;72.80
22416;DHT22;12204;50.600;4.608;2022-09-27T18:05:24;21.50;72.60
22416;DHT22;12204;50.600;4.608;2022-09-27T18:10:27;21.40;72.50
22416;DHT22;12204;50.600;4.608;2022-09-27T18:15:32;21.40;72.70
22416;DHT22;12204;50.600;4.608;2022-09-27T18:20:39;21.50;73.10
22416;DHT22;12204;50.600;4.608;2022-09-27T18:25:43;21.80;72.50
22416;DHT22;12204;50.600;4.608;2022-09-27T18:31:01;21.90;72.00
22416;DHT22;12204;50.600;4.608;2022-09-27T18:36:11;22.10;71.60
22416;DHT22;12204;50.600;4.608;2022-09-27T18:41:17;22.20;71.30
22416;DHT22;12204;50.600;4.608;2022-09-27T18:46:23;22.30;71.10
22416;DHT22;12204;50.600;4.608;2022-09-27T18:51:39;22.40;70.90
22416;DHT22;12204;50.600;4.608;2022-09-27T18:56:48;22.40;70.60
22416;DHT22;12204;50.600;4.608;2022-09-27T19:01:53;22.50;70.50
22416;DHT22;12204;50.600;4.608;2022-09-27T19:06:58;22.60;70.40
22416;DHT22;12204;50.600;4.608;2022-09-27T19:12:03;22.60;70.20
22416;DHT22;12204;50.600;4.608;2022-09-27T19:17:07;22.70;70.10
22416;DHT22;12204;50.600;4.608;2022-09-27T19:22:12;22.80;70.00
22416;DHT22;12204;50.600;4.608;2022-09-27T19:27:16;22.90;69.80
22416;DHT22;12204;50.600;4.608;2022-09-27T19:32:19;23.00;69.40
22416;DHT22;12204;50.600;4.608;2022-09-27T19:37:24;23.00;69.20
22416;DHT22;12204;50.600;4.608;2022-09-27T19:42:28;23.00;69.10
22416;DHT22;12204;50.600;4.608;2022-09-27T19:47:32;23.00;69.00
22416;DHT22;12204;50.600;4.608;2022-09-27T19:52:37;23.00;69.00
22416;DHT22;12204;50.600;4.608;2022-09-27T19:57:42;23.00;69.10
22416;DHT22;12204;50.600;4.608;2022-09-27T20:02:45;23.00;69.10
22416;DHT22;12204;50.600;4.608;2022-09-27T20:07:50;23.00;69.10
22416;DHT22;12204;50.600;4.608;2022-09-27T20:12:55;23.00;69.20
22416;DHT22;12204;50.600;4.608;2022-09-27T20:18:00;22.90;69.40
22416;DHT22;12204;50.600;4.608;2022-09-27T20:23:11;22.90;69.60
22416;DHT22;12204;50.600;4.608;2022-09-27T20:28:14;22.80;69.80
22416;DHT22;12204;50.600;4.608;2022-09-27T20:33:27;22.80;70.30
22416;DHT22;12204;50.600;4.608;2022-09-27T20:38:50;22.70;70.30
22416;DHT22;12204;50.600;4.608;2022-09-27T20:44:04;22.70;70.80
22416;DHT22;12204;50.600;4.608;2022-09-27T20:49:11;22.70;70.90
22416;DHT22;12204;50.600;4.608;2022-09-27T20:54:17;22.60;70.90
22416;DHT22;12204;50.600;4.608;2022-09-27T20:59:21;22.60;71.10
22416;DHT22;12204;50.600;4.608;2022-09-27T21:04:25;22.60;71.10
22416;DHT22;12204;50.600;4.608;2022-09-27T21:09:32;22.50;71.30
22416;DHT22;12204;50.600;4.608;2022-09-27T21:14:38;22.50;71.30
22416;DHT22;12204;50.600;4.608;2022-09-27T21:19:41;22.50;72.10
22416;DHT22;12204;50.600;4.608;2022-09-27T21:24:47;22.50;71.40
22416;DHT22;12204;50.600;4.608;2022-09-27T21:29:50;22.40;71.50
22416;DHT22;12204;50.600;4.608;2022-09-27T21:34:54;22.40;71.50
22416;DHT22;12204;50.600;4.608;2022-09-27T21:40:00;22.40;71.60
22416;DHT22;12204;50.600;4.608;2022-09-27T21:45:06;22.40;72.50
22416;DHT22;12204;50.600;4.608;2022-09-27T21:50:11;22.40;71.60
22416;DHT22;12204;50.600;4.608;2022-09-27T21:55:16;22.30;71.40
22416;DHT22;12204;50.600;4.608;2022-09-27T22:00:20;22.30;71.60
22416;DHT22;12204;50.600;4.608;2022-09-27T22:05:23;22.30;71.70
22416;DHT22;12204;50.600;4.608;2022-09-27T22:10:28;22.20;71.80
22416;DHT22;12204;50.600;4.608;2022-09-27T22:15:34;22.30;72.30
22416;DHT22;12204;50.600;4.608;2022-09-27T22:20:38;22.30;72.20
22416;DHT22;12204;50.600;4.608;2022-09-27T22:25:43;22.20;72.20
22416;DHT22;12204;50.600;4.608;2022-09-27T22:30:47;22.20;72.30
22416;DHT22;12204;50.600;4.608;2022-09-27T22:35:50;22.20;72.70
22416;DHT22;12204;50.600;4.608;2022-09-27T22:40:56;22.20;74.30
22416;DHT22;12204;50.600;4.608;2022-09-27T22:46:02;22.20;75.60
22416;DHT22;12204;50.600;4.608;2022-09-27T22:51:06;22.20;77.40
22416;DHT22;12204;50.600;4.608;2022-09-27T22:56:15;22.20;78.20
22416;DHT22;12204;50.600;4.608;2022-09-27T23:01:22;22.20;78.60
22416;DHT22;12204;50.600;4.608;2022-09-27T23:06:26;22.20;78.00
22416;DHT22;12204;50.600;4.608;2022-09-27T23:11:31;22.20;77.40
22416;DHT22;12204;50.600;4.608;2022-09-27T23:16:35;22.20;77.70
22416;DHT22;12204;50.600;4.608;2022-09-27T23:21:40;22.20;77.00
22416;DHT22;12204;50.600;4.608;2022-09-27T23:26:45;22.20;76.30
22416;DHT22;12204;50.600;4.608;2022-09-27T23:32:08;22.10;75.70
22416;DHT22;12204;50.600;4.608;2022-09-27T23:37:12;22.10;74.90
22416;DHT22;12204;50.600;4.608;2022-09-27T23:42:17;22.10;74.30
22416;DHT22;12204;50.600;4.608;2022-09-27T23:47:21;22.00;73.60
22416;DHT22;12204;50.600;4.608;2022-09-27T23:52:25;22.00;73.20
22416;DHT22;12204;50.600;4.608;2022-09-27T23:57:30;22.00;72.90
